Time;durP1;ratioP1;P1;durP2;ratioP2;P2;SDS_P1;SDS_P2;PMS_P1;PMS_P2;Temp;Humidity;BMP_temperature;BMP_pressure;BME280_temperature;BME280_humidity;BME280_pressure;Samples;Min_cycle;Max_cycle;Signal;HPM_P1;HPM_P2
2022/01/01 00:00:13;;;;;;;1.17;0.52;;;27.60;48.10;;;;;;5010703;28;20764;-45
2022/01/01 00:02:44;;;;;;;0.47;0.40;;;27.60;48.00;;;;;;5010043;28;20299;-49
2022/01/01 00:05:15;;;;;;;0.50;0.40;;;27.70;48.00;;;;;;5010885;28;20284;-37
2022/01/01 00:07:46;;;;;;;0.80;0.30;;;27.70;48.00;;;;;;5010549;28;20752;-38
2022/01/01 00:10:17;;;;;;;0.60;0.50;;;27.70;48.00;;;;;;5009353;28;20232;-38
2022/01/01 00:12:48;;;;;;;1.48;0.60;;;27.80;48.00;;;;;;5009721;28;20232;-44
2022/01/01 00:15:21;;;;;;;1.38;0.70;;;27.80;48.00;;;;;;5010688;28;20250;-37
2022/01/01 00:17:52;;;;;;;1.05;0.47;;;27.80;47.90;;;;;;5009778;28;20197;-37
2022/01/01 00:20:22;;;;;;;1.00;0.60;;;27.80;47.60;;;;;;5010573;28;20833;-37
2022/01/01 00:22:53;;;;;;;0.60;0.50;;;27.90;47.50;;;;;;5009026;28;20292;-37
2022/01/01 00:25:23;;;;;;;0.90;0.50;;;27.90;47.50;;;;;;5009369;28;20289;-38
2022/01/01 00:27:54;;;;;;;0.63;0.40;;;27.90;47.40;;;;;;5011095;28;20288;-37
2022/01/01 00:30:26;;;;;;;0.73;0.50;;;27.90;47.90;;;;;;5008163;28;20588;-37
2022/01/01 00:32:57;;;;;;;1.15;0.60;;;27.90;47.30;;;;;;5009682;28;20236;-38
2022/01/01 00:35:27;;;;;;;1.17;0.50;;;27.90;47.40;;;;;;5004469;28;20260;-38
2022/01/01 00:37:58;;;;;;;3.33;0.82;;;27.90;47.30;;;;;;4998241;28;20284;-44
2022/01/01 00:40:29;;;;;;;1.55;0.70;;;27.90;47.50;;;;;;5004477;28;20311;-38
2022/01/01 00:42:59;;;;;;;1.55;0.73;;;28.00;47.60;;;;;;5009665;28;20681;-40
2022/01/01 00:45:32;;;;;;;1.38;0.73;;;28.00;47.50;;;;;;5010477;28;20287;-51
2022/01/01 00:48:02;;;;;;;2.47;0.77;;;28.00;47.60;;;;;;4996069;28;20935;-45
2022/01/01 00:50:33;;;;;;;2.53;0.77;;;28.00;47.60;;;;;;5009444;28;20655;-50
2022/01/01 00:53:03;;;;;;;0.80;0.60;;;28.00;47.60;;;;;;5008902;28;20288;-50
2022/01/01 00:55:34;;;;;;;1.30;0.88;;;28.00;47.60;;;;;;5008406;28;20304;-53
2022/01/01 00:58:04;;;;;;;1.60;0.60;;;28.10;47.70;;;;;;5008972;28;20736;-43
2022/01/01 01:00:37;;;;;;;1.77;0.98;;;28.00;47.60;;;;;;5006924;28;20303;-50
2022/01/01 01:03:11;;;;;;;2.35;0.70;;;28.10;47.60;;;;;;5001570;28;20719;-47
2022/01/01 01:05:41;;;;;;;2.30;0.70;;;28.10;47.60;;;;;;5009253;28;20282;-51
2022/01/01 01:08:13;;;;;;;2.00;0.88;;;28.10;47.60;;;;;;5011980;28;20288;-40
2022/01/01 01:10:46;;;;;;;1.05;0.60;;;28.10;47.60;;;;;;5013856;28;20967;-39
2022/01/01 01:13:17;;;;;;;2.08;0.70;;;28.10;47.50;;;;;;5014215;28;20201;-49
2022/01/01 01:15:49;;;;;;;1.48;0.60;;;28.10;47.40;;;;;;5013020;28;20340;-52
2022/01/01 01:18:19;;;;;;;2.08;0.70;;;28.10;47.40;;;;;;5013197;28;20308;-52
2022/01/01 01:20:50;;;;;;;1.98;0.80;;;28.10;47.40;;;;;;5014145;28;20292;-56
2022/01/01 01:23:21;;;;;;;1.67;0.60;;;28.10;47.30;;;;;;5011980;28;20296;-50
2022/01/01 01:25:51;;;;;;;3.80;0.70;;;28.20;47.40;;;;;;5014054;28;20289;-56
2022/01/01 01:28:21;;;;;;;1.75;0.80;;;28.10;47.40;;;;;;5012873;28;20236;-43
2022/01/01 01:30:54;;;;;;;2.17;0.90;;;28.10;47.30;;;;;;5012318;28;20260;-45
2022/01/01 01:33:24;;;;;;;1.20;0.80;;;28.10;47.40;;;;;;5012534;28;20288;-44
2022/01/01 01:35:55;;;;;;;3.17;0.88;;;28.10;47.60;;;;;;5012444;28;20250;-45
2022/01/01 01:38:25;;;;;;;1.35;0.90;;;28.10;47.60;;;;;;5012590;28;20288;-52
2022/01/01 01:40:55;;;;;;;1.95;0.82;;;28.10;47.70;;;;;;5012170;28;20316;-42
2022/01/01 01:43:26;;;;;;;1.75;0.80;;;28.20;47.80;;;;;;5011721;28;20284;-43
2022/01/01 01:46:03;;;;;;;2.22;1.00;;;28.20;47.70;;;;;;5012656;28;20429;-50
2022/01/01 01:48:35;;;;;;;2.17;0.93;;;28.20;47.70;;;;;;5012629;28;20197;-46
2022/01/01 01:51:06;;;;;;;2.20;0.80;;;28.20;47.70;;;;;;4996910;28;20299;-39
2022/01/01 01:53:36;;;;;;;3.20;1.00;;;28.20;47.70;;;;;;5011779;28;20308;-47
2022/01/01 01:56:07;;;;;;;1.33;0.70;;;28.20;47.60;;;;;;5013163;28;20300;-43
2022/01/01 01:58:38;;;;;;;2.22;0.90;;;28.20;47.60;;;;;;5012472;28;20557;-56
2022/01/01 02:01:20;;;;;;;2.33;0.73;;;28.20;47.50;;;;;;5013550;28;20303;-49
2022/01/01 02:03:54;;;;;;;2.50;0.75;;;28.20;47.50;;;;;;5012502;28;20663;-49
2022/01/01 02:06:25;;;;;;;2.40;1.13;;;28.20;47.50;;;;;;5013570;28;20201;-42
2022/01/01 02:08:56;;;;;;;4.85;1.10;;;28.30;47.50;;;;;;5013234;28;20228;-56
2022/01/01 02:11:26;;;;;;;2.80;1.35;;;28.30;47.40;;;;;;5010860;28;20748;-50
2022/01/01 02:14:12;;;;;;;1.88;1.00;;;28.30;47.40;;;;;;5011716;28;20236;-47
2022/01/01 02:19:45;;;;;;;2.80;1.00;;;28.30;47.30;;;;;;5011159;28;20310;-47
2022/01/01 02:22:17;;;;;;;3.88;1.08;;;28.20;47.30;;;;;;5011651;28;20803;-45
2022/01/01 02:24:48;;;;;;;3.42;1.20;;;28.30;47.40;;;;;;5011133;28;20288;-53
2022/01/01 02:27:19;;;;;;;3.80;1.23;;;28.20;47.40;;;;;;5012573;28;20247;-51
2022/01/01 02:29:50;;;;;;;2.17;1.08;;;28.30;47.40;;;;;;5012009;28;20227;-44
2022/01/01 02:32:20;;;;;;;3.25;1.38;;;28.30;47.40;;;;;;5012369;28;20667;-51
2022/01/01 02:34:50;;;;;;;3.97;1.50;;;28.30;47.50;;;;;;4994415;28;20281;-53
2022/01/01 02:37:23;;;;;;;4.47;1.45;;;28.30;47.40;;;;;;5011372;28;20283;-56
2022/01/01 02:39:53;;;;;;;2.90;1.10;;;28.30;47.40;;;;;;5011174;28;20315;-51
2022/01/01 02:42:24;;;;;;;2.45;1.35;;;28.30;47.30;;;;;;5012366;28;20294;-51
2022/01/01 02:44:55;;;;;;;2.70;1.40;;;28.30;47.40;;;;;;4996507;28;20199;-56
2022/01/01 02:47:25;;;;;;;1.40;1.10;;;28.30;47.40;;;;;;5010962;28;20211;-53
2022/01/01 02:49:56;;;;;;;5.50;1.65;;;28.30;47.40;;;;;;5011093;28;20688;-46
2022/01/01 02:52:28;;;;;;;4.10;1.40;;;28.30;47.30;;;;;;5010817;28;20239;-48
2022/01/01 02:54:59;;;;;;;5.22;1.83;;;28.40;47.40;;;;;;5011931;28;20288;-57
2022/01/01 02:57:29;;;;;;;4.68;1.67;;;28.40;47.30;;;;;;5011129;28;20311;-45
2022/01/01 03:00:00;;;;;;;3.47;1.58;;;28.40;47.30;;;;;;5011291;28;20316;-46
2022/01/01 03:02:30;;;;;;;2.95;1.60;;;28.40;47.30;;;;;;5010888;28;20244;-55
2022/01/01 03:05:01;;;;;;;4.82;1.70;;;28.40;47.30;;;;;;5010962;28;20288;-49
2022/01/01 03:07:34;;;;;;;5.10;1.58;;;28.40;47.20;;;;;;5012410;28;20239;-55
2022/01/01 03:10:05;;;;;;;3.10;1.63;;;28.40;47.20;;;;;;5010427;28;20608;-57
2022/01/01 03:12:36;;;;;;;2.85;1.50;;;28.40;47.20;;;;;;5011656;28;20300;-54
2022/01/01 03:15:06;;;;;;;4.43;1.63;;;28.40;47.20;;;;;;5011917;28;20280;-53
2022/01/01 03:17:37;;;;;;;3.00;1.33;;;28.40;47.20;;;;;;5011375;28;20319;-57
2022/01/01 03:20:08;;;;;;;5.45;1.75;;;28.40;47.20;;;;;;5010131;28;20308;-47
2022/01/01 03:22:41;;;;;;;3.65;1.70;;;28.40;47.20;;;;;;5010132;28;20404;-38
2022/01/01 03:25:18;;;;;;;3.58;1.42;;;28.40;47.10;;;;;;5009472;28;20692;-37
2022/01/01 03:27:48;;;;;;;4.38;1.65;;;28.40;47.10;;;;;;5012062;28;20240;-38
2022/01/01 03:30:19;;;;;;;6.13;1.70;;;28.40;47.10;;;;;;5009982;28;20760;-37
2022/01/01 03:32:50;;;;;;;3.78;2.05;;;28.50;47.20;;;;;;5010030;28;20291;-38
2022/01/01 03:35:20;;;;;;;4.78;1.80;;;28.50;47.10;;;;;;5010176;28;20314;-37
2022/01/01 03:37:52;;;;;;;2.13;1.38;;;28.50;47.20;;;;;;5010517;28;20315;-37
2022/01/01 03:40:23;;;;;;;4.47;2.25;;;28.50;47.20;;;;;;5010181;28;20663;-37
2022/01/01 03:42:53;;;;;;;3.78;1.80;;;28.50;47.10;;;;;;5010176;28;20197;-38
2022/01/01 03:45:24;;;;;;;4.00;2.00;;;28.50;47.10;;;;;;5008753;28;20235;-38
2022/01/01 03:47:54;;;;;;;4.25;1.63;;;28.50;47.10;;;;;;4994948;28;20232;-46
2022/01/01 03:50:25;;;;;;;5.43;2.15;;;28.50;47.10;;;;;;5010255;28;20312;-48
2022/01/01 03:52:57;;;;;;;4.63;2.00;;;28.60;47.10;;;;;;5011572;28;20283;-41
2022/01/01 03:55:27;;;;;;;4.43;1.63;;;28.60;47.10;;;;;;5009889;28;21515;-43
2022/01/01 03:57:58;;;;;;;3.85;2.08;;;28.60;47.10;;;;;;5011364;28;20227;-45
2022/01/01 04:00:28;;;;;;;4.85;1.95;;;28.60;47.10;;;;;;5009682;28;20300;-47
2022/01/01 04:03:08;;;;;;;3.25;1.90;;;28.60;47.10;;;;;;5010027;28;20244;-52
2022/01/01 04:05:40;;;;;;;4.15;2.08;;;28.60;47.00;;;;;;5009896;28;20284;-54
2022/01/01 04:08:13;;;;;;;3.65;2.00;;;28.60;46.90;;;;;;5009659;28;20211;-53
2022/01/01 04:10:44;;;;;;;3.28;1.77;;;28.60;46.90;;;;;;5008885;28;20315;-48
2022/01/01 04:13:14;;;;;;;3.45;1.88;;;28.60;46.90;;;;;;5010574;28;20896;-50
2022/01/01 04:15:45;;;;;;;5.30;2.10;;;28.60;46.80;;;;;;5010210;28;20292;-53
2022/01/01 04:18:25;;;;;;;3.65;1.98;;;28.60;46.80;;;;;;5009667;28;20228;-56
2022/01/01 04:20:56;;;;;;;5.65;1.92;;;28.60;46.80;;;;;;5009204;28;20275;-56
2022/01/01 04:23:28;;;;;;;4.18;2.25;;;28.60;46.80;;;;;;5009246;28;20695;-53
2022/01/01 04:26:00;;;;;;;4.22;2.17;;;28.60;46.80;;;;;;5009712;28;20259;-55
2022/01/01 04:28:30;;;;;;;3.65;2.03;;;28.60;46.80;;;;;;5010793;28;20232;-50
2022/01/01 04:31:01;;;;;;;5.53;2.47;;;28.60;46.80;;;;;;5009737;28;20303;-56
2022/01/01 04:33:31;;;;;;;4.28;1.83;;;28.70;46.90;;;;;;5009976;28;20288;-56
2022/01/01 04:36:02;;;;;;;4.22;2.10;;;28.70;46.80;;;;;;5010875;28;20288;-45
2022/01/01 04:38:39;;;;;;;5.75;2.35;;;28.70;46.70;;;;;;5010666;28;20283;-47
2022/01/01 04:41:11;;;;;;;4.50;2.20;;;28.70;46.60;;;;;;5008588;28;20246;-57
2022/01/01 04:43:42;;;;;;;3.75;2.00;;;28.70;46.60;;;;;;5008762;28;20196;-50
2022/01/01 04:46:13;;;;;;;4.20;2.22;;;28.70;46.60;;;;;;5010691;28;20204;-47
2022/01/01 04:48:43;;;;;;;4.10;2.20;;;28.70;46.70;;;;;;4992276;28;20648;-45
2022/01/01 04:51:14;;;;;;;5.63;2.25;;;28.70;46.60;;;;;;5008965;28;20323;-52
2022/01/01 04:53:47;;;;;;;4.00;1.95;;;28.70;46.60;;;;;;5010035;28;20283;-44
2022/01/01 04:56:19;;;;;;;5.60;2.50;;;28.70;46.60;;;;;;5009447;28;20203;-39
2022/01/01 04:58:50;;;;;;;3.42;2.05;;;28.70;46.60;;;;;;5008721;28;20244;-49
2022/01/01 05:01:20;;;;;;;4.45;2.20;;;28.70;46.60;;;;;;5010532;28;20288;-53
2022/01/01 05:03:51;;;;;;;3.22;1.80;;;28.70;46.60;;;;;;5010775;28;20293;-52
2022/01/01 05:06:22;;;;;;;3.15;1.90;;;28.70;46.60;;;;;;5010706;28;20284;-48
2022/01/01 05:08:54;;;;;;;4.32;1.80;;;28.70;46.60;;;;;;5009181;28;20316;-54
2022/01/01 05:11:25;;;;;;;4.32;2.10;;;28.70;46.50;;;;;;5008686;28;20236;-50
2022/01/01 05:13:55;;;;;;;3.72;1.90;;;28.70;46.60;;;;;;5009064;28;20681;-57
2022/01/01 05:16:26;;;;;;;4.97;2.10;;;28.70;46.50;;;;;;5008476;28;20243;-53
2022/01/01 05:18:56;;;;;;;4.78;1.98;;;28.70;46.50;;;;;;5009909;28;20201;-56
2022/01/01 05:21:27;;;;;;;4.88;2.15;;;28.70;46.50;;;;;;5010277;28;20705;-57
2022/01/01 05:24:00;;;;;;;10.02;2.83;;;28.70;46.40;;;;;;5008506;28;20255;-54
2022/01/01 05:26:30;;;;;;;10.93;2.55;;;28.80;46.50;;;;;;5008945;28;20647;-52
2022/01/01 05:29:00;;;;;;;11.07;3.13;;;28.70;46.40;;;;;;5010411;28;20286;-55
2022/01/01 05:31:33;;;;;;;8.52;3.05;;;28.80;46.40;;;;;;5010323;28;20324;-48
2022/01/01 05:34:05;;;;;;;9.55;2.75;;;28.70;46.30;;;;;;5009902;28;20201;-55
2022/01/01 05:36:36;;;;;;;5.72;2.33;;;28.70;46.40;;;;;;5008723;28;20223;-54
2022/01/01 05:39:08;;;;;;;7.53;2.03;;;28.70;46.40;;;;;;5008557;28;20672;-52
2022/01/01 05:41:38;;;;;;;6.85;2.40;;;28.70;46.40;;;;;;5009829;28;20288;-57
2022/01/01 05:44:09;;;;;;;5.50;2.17;;;28.70;46.30;;;;;;5010154;28;20283;-52
2022/01/01 05:46:39;;;;;;;7.55;2.42;;;28.70;46.40;;;;;;5009510;28;20228;-44
2022/01/01 05:49:10;;;;;;;8.07;2.78;;;28.70;46.40;;;;;;5009381;28;20240;-58
2022/01/01 05:51:40;;;;;;;5.53;2.10;;;28.70;46.40;;;;;;5007679;28;20240;-51
2022/01/01 05:54:13;;;;;;;5.80;2.10;;;28.70;46.40;;;;;;5009696;28;20668;-52
2022/01/01 05:56:43;;;;;;;5.82;2.40;;;28.70;46.40;;;;;;5013429;28;20240;-55
2022/01/01 05:59:13;;;;;;;5.22;2.03;;;28.70;46.40;;;;;;4995698;28;20301;-55
2022/01/01 06:01:44;;;;;;;5.75;2.67;;;28.60;46.40;;;;;;4995482;28;20259;-50
2022/01/01 06:04:14;;;;;;;4.50;2.15;;;28.60;46.40;;;;;;5011791;28;20228;-57
2022/01/01 06:06:45;;;;;;;5.75;2.00;;;28.60;46.30;;;;;;5013477;28;20280;-51
2022/01/01 06:09:18;;;;;;;5.28;2.20;;;28.60;46.30;;;;;;5011984;28;20307;-56
2022/01/01 06:11:48;;;;;;;5.07;2.40;;;28.70;46.40;;;;;;5012826;28;20630;-46
2022/01/01 06:14:20;;;;;;;4.43;2.30;;;28.60;46.30;;;;;;5012257;28;20235;-55
2022/01/01 06:16:51;;;;;;;5.32;2.22;;;28.60;46.30;;;;;;5013305;28;20644;-54
2022/01/01 06:19:21;;;;;;;5.38;2.00;;;28.60;46.30;;;;;;5013250;28;20307;-50
2022/01/01 06:21:52;;;;;;;4.68;2.40;;;28.60;46.30;;;;;;5012884;28;20199;-57
2022/01/01 06:24:24;;;;;;;4.68;2.25;;;28.60;46.30;;;;;;5009916;28;20287;-54
2022/01/01 06:26:55;;;;;;;7.93;2.50;;;28.60;46.30;;;;;;5011775;28;20540;-55
2022/01/01 06:29:25;;;;;;;5.28;2.13;;;28.60;46.30;;;;;;5011769;28;20799;-48
2022/01/01 06:31:55;;;;;;;5.25;2.50;;;28.60;46.20;;;;;;5011368;28;20288;-45
2022/01/01 06:34:26;;;;;;;3.45;1.70;;;28.60;46.30;;;;;;5012623;28;20716;-56
2022/01/01 06:36:56;;;;;;;5.47;2.22;;;28.60;46.30;;;;;;5011661;28;20283;-49
2022/01/01 06:39:29;;;;;;;4.82;2.28;;;28.60;46.30;;;;;;5011417;28;20772;-39
2022/01/01 06:41:59;;;;;;;3.67;2.20;;;28.60;46.30;;;;;;5010986;28;20292;-52
2022/01/01 06:44:30;;;;;;;4.05;2.30;;;28.50;46.20;;;;;;5011226;28;20237;-55
2022/01/01 06:47:00;;;;;;;3.92;2.20;;;28.60;46.30;;;;;;5011050;28;20372;-49
2022/01/01 06:49:31;;;;;;;6.03;2.40;;;28.60;46.30;;;;;;5010934;28;20311;-50
2022/01/01 06:52:01;;;;;;;4.20;2.17;;;28.50;46.30;;;;;;5012649;28;20746;-46
2022/01/01 06:54:34;;;;;;;4.50;2.22;;;28.50;46.30;;;;;;5011150;28;20643;-53
2022/01/01 06:57:04;;;;;;;5.18;2.40;;;28.50;46.30;;;;;;5011720;28;20287;-48
2022/01/01 06:59:35;;;;;;;4.38;2.13;;;28.50;46.30;;;;;;5011818;28;20262;-53
2022/01/01 07:02:05;;;;;;;3.55;1.95;;;28.50;46.30;;;;;;5011907;28;20232;-44
2022/01/01 07:04:36;;;;;;;4.57;2.03;;;28.50;46.30;;;;;;5011529;28;20232;-48
2022/01/01 07:07:06;;;;;;;4.00;2.17;;;28.50;46.30;;;;;;5010957;28;20288;-55
2022/01/01 07:09:39;;;;;;;4.93;2.40;;;28.50;46.30;;;;;;5011498;28;20308;-57
2022/01/01 07:12:10;;;;;;;3.25;2.00;;;28.50;46.30;;;;;;5011606;28;20728;-53
2022/01/01 07:14:40;;;;;;;4.05;2.03;;;28.50;46.40;;;;;;4993564;28;20284;-54
2022/01/01 07:17:11;;;;;;;4.20;2.25;;;28.50;46.40;;;;;;5002920;28;20281;-51
2022/01/01 07:19:41;;;;;;;3.28;2.05;;;28.50;46.40;;;;;;5010867;28;20223;-54
2022/01/01 07:22:11;;;;;;;5.38;2.38;;;28.50;46.40;;;;;;5012112;28;20289;-54
2022/01/01 07:24:44;;;;;;;5.28;2.20;;;28.50;46.40;;;;;;5011717;28;20279;-48
2022/01/01 07:27:15;;;;;;;4.20;2.33;;;28.40;46.30;;;;;;5010549;28;20197;-47
2022/01/01 07:29:45;;;;;;;4.72;2.15;;;28.40;46.40;;;;;;5010709;28;20295;-57
2022/01/01 07:32:16;;;;;;;4.03;1.90;;;28.40;46.40;;;;;;5011728;28;20289;-48
2022/01/01 07:34:46;;;;;;;4.15;1.77;;;28.40;46.50;;;;;;5010693;28;20205;-54
2022/01/01 07:37:17;;;;;;;4.78;2.17;;;28.30;46.60;;;;;;5010566;28;20275;-43
2022/01/01 07:39:49;;;;;;;4.78;2.20;;;28.30;46.60;;;;;;5010658;28;20324;-53
2022/01/01 07:42:19;;;;;;;3.55;2.17;;;28.30;46.60;;;;;;5011047;28;20496;-53
2022/01/01 07:44:50;;;;;;;4.47;2.28;;;28.20;46.50;;;;;;5011645;28;20732;-57
2022/01/01 07:47:20;;;;;;;5.90;2.00;;;28.20;46.60;;;;;;5010382;28;20279;-49
2022/01/01 07:49:51;;;;;;;4.55;2.17;;;28.20;46.60;;;;;;5010331;28;20307;-48
2022/01/01 07:52:21;;;;;;;3.85;2.30;;;28.10;46.60;;;;;;5010457;28;20291;-48
2022/01/01 07:54:54;;;;;;;5.05;2.28;;;28.10;46.70;;;;;;5010411;28;20284;-57
2022/01/01 07:57:24;;;;;;;2.22;1.95;;;28.10;46.70;;;;;;5010912;28;20291;-55
2022/01/01 07:59:55;;;;;;;3.50;2.10;;;28.00;46.70;;;;;;5009640;28;20304;-57
2022/01/01 08:02:25;;;;;;;2.90;1.95;;;28.00;46.80;;;;;;5010063;28;20676;-58
2022/01/01 08:04:56;;;;;;;3.92;2.22;;;28.00;46.80;;;;;;5011324;28;20232;-50
2022/01/01 08:07:26;;;;;;;4.03;1.98;;;28.00;46.90;;;;;;5010698;28;20288;-56
2022/01/01 08:09:59;;;;;;;4.25;2.30;;;28.00;46.90;;;;;;5006774;28;20301;-57
2022/01/01 08:12:29;;;;;;;2.88;1.95;;;27.90;46.90;;;;;;5009660;28;20291;-55
2022/01/01 08:15:00;;;;;;;2.83;1.90;;;27.90;47.00;;;;;;5010860;28;20714;-43
2022/01/01 08:17:30;;;;;;;3.65;1.92;;;27.90;47.10;;;;;;5008894;28;20251;-49
2022/01/01 08:20:01;;;;;;;3.50;2.00;;;27.80;47.10;;;;;;5010649;28;20257;-50
2022/01/01 08:22:32;;;;;;;4.05;2.22;;;27.80;47.10;;;;;;5009238;28;20254;-57
2022/01/01 08:25:04;;;;;;;2.45;1.88;;;27.80;47.10;;;;;;5009287;28;20687;-57
2022/01/01 08:27:34;;;;;;;3.17;1.90;;;27.70;47.10;;;;;;5010002;28;20235;-57
2022/01/01 08:30:06;;;;;;;4.03;2.03;;;27.70;47.10;;;;;;5009470;28;20295;-44
2022/01/01 08:32:36;;;;;;;4.05;2.15;;;27.60;47.20;;;;;;5007839;28;20276;-56
2022/01/01 08:35:07;;;;;;;6.53;2.17;;;27.60;47.20;;;;;;5009669;28;20303;-53
2022/01/01 08:37:37;;;;;;;5.30;2.10;;;27.60;47.20;;;;;;4994803;28;20279;-55
2022/01/01 08:40:11;;;;;;;3.85;2.10;;;27.50;47.30;;;;;;5010249;28;20251;-58
2022/01/01 08:42:42;;;;;;;3.50;1.95;;;27.50;47.30;;;;;;5010186;28;20281;-54
2022/01/01 08:45:12;;;;;;;4.55;2.20;;;27.50;47.40;;;;;;5009706;28;20232;-51
2022/01/01 08:47:43;;;;;;;3.40;1.92;;;27.40;47.30;;;;;;5009194;28;20283;-56
2022/01/01 08:50:14;;;;;;;3.40;1.85;;;27.40;47.40;;;;;;5010709;28;20700;-44
2022/01/01 08:52:45;;;;;;;2.58;1.70;;;27.40;47.50;;;;;;5010725;28;20288;-57
2022/01/01 08:55:17;;;;;;;4.43;2.10;;;27.40;47.50;;;;;;5009595;28;20291;-53
2022/01/01 08:57:48;;;;;;;4.05;2.00;;;27.40;47.60;;;;;;5010365;28;20718;-46
2022/01/01 09:00:19;;;;;;;3.20;1.80;;;27.30;47.60;;;;;;5010386;28;20356;-42
2022/01/01 09:02:49;;;;;;;2.53;1.77;;;27.30;47.70;;;;;;5009775;28;20388;-43
2022/01/01 09:05:21;;;;;;;3.00;1.73;;;27.20;47.60;;;;;;5009058;28;20288;-54
2022/01/01 09:07:52;;;;;;;3.80;2.20;;;27.20;47.70;;;;;;5009194;28;20220;-46
2022/01/01 09:10:24;;;;;;;5.32;2.17;;;27.20;47.70;;;;;;5008653;28;20714;-47
2022/01/01 09:12:55;;;;;;;3.33;1.83;;;27.10;47.70;;;;;;5009534;28;20292;-55
2022/01/01 09:15:25;;;;;;;5.55;2.25;;;27.10;47.80;;;;;;5009697;28;20319;-53
2022/01/01 09:17:56;;;;;;;2.45;1.83;;;27.10;47.80;;;;;;5007584;28;20723;-56
2022/01/01 09:20:26;;;;;;;3.42;1.92;;;27.10;47.80;;;;;;5010229;28;20316;-56
2022/01/01 09:22:57;;;;;;;3.25;2.20;;;27.00;47.80;;;;;;5010633;28;20291;-58
2022/01/01 09:25:36;;;;;;;4.28;2.30;;;27.00;47.90;;;;;;5010346;28;20284;-57
2022/01/01 09:28:07;;;;;;;4.07;2.30;;;26.90;47.90;;;;;;5010624;28;20833;-50
2022/01/01 09:30:37;;;;;;;4.28;1.83;;;26.90;47.90;;;;;;5012098;28;20256;-54
2022/01/01 09:33:08;;;;;;;3.95;2.03;;;26.90;48.00;;;;;;5012734;28;20288;-51
2022/01/01 09:35:38;;;;;;;3.08;2.00;;;26.80;47.90;;;;;;5012525;28;20676;-49
2022/01/01 09:38:09;;;;;;;3.67;1.80;;;26.80;48.00;;;;;;4995779;28;20335;-56
2022/01/01 09:40:41;;;;;;;4.03;2.00;;;26.80;48.00;;;;;;5013537;28;20298;-54
2022/01/01 09:43:15;;;;;;;3.92;1.85;;;26.80;48.10;;;;;;5012322;28;20288;-56
2022/01/01 09:45:46;;;;;;;3.08;2.00;;;26.80;48.20;;;;;;5011911;28;20291;-49
2022/01/01 09:48:18;;;;;;;4.13;2.10;;;26.70;48.10;;;;;;5013131;28;20288;-51
2022/01/01 09:50:49;;;;;;;3.40;2.17;;;26.70;48.10;;;;;;5012931;28;20349;-49
2022/01/01 09:53:20;;;;;;;3.55;2.10;;;26.70;48.10;;;;;;5012159;28;20284;-57
2022/01/01 09:55:52;;;;;;;4.20;2.20;;;26.60;48.10;;;;;;5013549;28;20352;-47
2022/01/01 09:58:26;;;;;;;1.90;1.55;;;26.60;48.10;;;;;;5012986;28;20221;-51
2022/01/01 10:00:56;;;;;;;3.45;2.05;;;26.60;48.20;;;;;;5012090;28;20299;-53
2022/01/01 10:03:36;;;;;;;2.50;1.88;;;26.50;48.10;;;;;;5013590;28;20201;-53
2022/01/01 10:06:08;;;;;;;3.65;2.08;;;26.50;48.10;;;;;;5012296;28;20787;-49
2022/01/01 10:08:40;;;;;;;2.70;1.90;;;26.50;48.20;;;;;;5011509;28;20223;-48
2022/01/01 10:11:12;;;;;;;2.45;1.83;;;26.50;48.20;;;;;;5011735;28;20279;-42
2022/01/01 10:13:43;;;;;;;3.10;2.03;;;26.50;48.20;;;;;;5011690;28;20295;-57
2022/01/01 10:16:15;;;;;;;3.13;1.92;;;26.40;48.20;;;;;;5013155;28;20205;-48
2022/01/01 10:18:47;;;;;;;4.80;2.08;;;26.40;48.20;;;;;;5013077;28;20847;-57
2022/01/01 10:21:19;;;;;;;2.72;1.90;;;26.40;48.30;;;;;;5011947;28;20288;-53
2022/01/01 10:23:52;;;;;;;3.15;2.03;;;26.30;48.30;;;;;;5013379;28;20287;-54
2022/01/01 10:29:14;;;;;;;3.13;1.85;;;26.30;48.30;;;;;;5010388;28;20228;-55
2022/01/01 10:32:00;;;;;;;3.05;1.83;;;26.30;48.30;;;;;;4995113;28;20712;-51
2022/01/01 10:34:32;;;;;;;3.25;1.95;;;26.30;48.40;;;;;;4997630;28;20295;-55
2022/01/01 10:37:03;;;;;;;2.35;1.77;;;26.20;48.30;;;;;;5012883;28;20300;-56
2022/01/01 10:39:33;;;;;;;1.77;1.52;;;26.20;48.30;;;;;;5010732;28;20336;-57
2022/01/01 10:42:14;;;;;;;3.10;1.92;;;26.20;48.30;;;;;;5012676;28;20291;-54
2022/01/01 10:44:50;;;;;;;2.20;1.70;;;26.20;48.30;;;;;;5011118;28;20193;-53
2022/01/01 10:47:26;;;;;;;3.03;1.65;;;26.10;48.30;;;;;;5011269;28;20869;-51
2022/01/01 10:50:15;;;;;;;3.40;1.88;;;26.10;48.40;;;;;;5010981;28;20216;-57
2022/01/01 10:52:47;;;;;;;2.38;1.60;;;26.10;48.30;;;;;;5011342;28;20200;-53
2022/01/01 10:55:19;;;;;;;4.20;1.67;;;26.10;48.40;;;;;;5012366;28;20653;-50
2022/01/01 10:58:00;;;;;;;2.38;1.90;;;26.10;48.40;;;;;;5010869;28;20208;-51
2022/01/01 11:00:31;;;;;;;1.85;1.70;;;26.00;48.40;;;;;;5011707;28;20232;-55
2022/01/01 11:03:02;;;;;;;2.40;1.83;;;26.00;48.50;;;;;;5009673;28;20280;-49
2022/01/01 11:05:33;;;;;;;3.28;1.70;;;25.90;48.40;;;;;;5011754;28;20871;-55
2022/01/01 11:08:04;;;;;;;2.88;1.92;;;25.90;48.40;;;;;;5010830;28;20196;-42
2022/01/01 11:10:36;;;;;;;1.80;1.67;;;25.90;48.40;;;;;;5009621;28;20300;-55
2022/01/01 11:13:08;;;;;;;3.10;1.65;;;25.90;48.40;;;;;;4994676;28;20285;-43
2022/01/01 11:15:39;;;;;;;1.80;1.55;;;25.80;48.40;;;;;;5011979;28;20288;-54
2022/01/01 11:18:10;;;;;;;2.55;1.60;;;25.80;48.50;;;;;;5011648;28;20615;-57
2022/01/01 11:20:41;;;;;;;2.45;1.73;;;25.80;48.50;;;;;;5011411;28;20307;-57
2022/01/01 11:23:13;;;;;;;2.95;1.70;;;25.80;48.50;;;;;;5011675;28;20284;-50
2022/01/01 11:25:46;;;;;;;2.05;1.65;;;25.70;48.50;;;;;;5011048;28;20580;-46
2022/01/01 11:28:20;;;;;;;2.45;1.60;;;25.70;48.50;;;;;;5011894;28;20280;-52
2022/01/01 11:31:00;;;;;;;2.97;1.80;;;25.70;48.50;;;;;;5011979;28;20225;-56
2022/01/01 11:33:33;;;;;;;2.25;1.60;;;25.70;48.60;;;;;;5010846;28;20288;-47
2022/01/01 11:36:04;;;;;;;2.70;1.60;;;25.60;48.50;;;;;;5010417;28;20284;-55
2022/01/01 11:38:37;;;;;;;1.55;1.45;;;25.60;48.50;;;;;;5011563;28;20235;-51
2022/01/01 11:41:09;;;;;;;2.42;1.80;;;25.60;48.60;;;;;;5009947;28;20315;-51
2022/01/01 11:43:43;;;;;;;2.10;1.58;;;25.50;48.50;;;;;;5010173;28;20290;-55
2022/01/01 11:46:16;;;;;;;2.47;1.52;;;25.50;48.50;;;;;;5010099;28;20287;-50
2022/01/01 11:48:49;;;;;;;1.88;1.67;;;25.50;48.60;;;;;;5010318;28;20235;-50
2022/01/01 11:51:38;;;;;;;2.08;1.80;;;25.50;48.60;;;;;;5010142;28;20597;-54
2022/01/01 11:54:21;;;;;;;2.20;1.45;;;25.40;48.60;;;;;;5001560;28;20483;-51
2022/01/01 11:57:04;;;;;;;2.67;1.55;;;25.40;48.60;;;;;;4993308;28;20208;-58
2022/01/01 11:59:44;;;;;;;2.00;1.80;;;25.40;48.70;;;;;;5010982;28;20224;-57
2022/01/01 12:02:46;;;;;;;2.97;1.70;;;25.30;48.60;;;;;;5010466;28;20829;-54
2022/01/01 12:05:29;;;;;;;2.22;1.42;;;25.30;48.60;;;;;;5009859;28;20200;-54
2022/01/01 12:08:02;;;;;;;3.15;1.65;;;25.30;48.60;;;;;;5009600;28;20676;-46
2022/01/01 12:10:37;;;;;;;1.98;1.60;;;25.30;48.60;;;;;;5009517;28;20235;-43
2022/01/01 12:13:09;;;;;;;1.63;1.40;;;25.20;48.60;;;;;;5009230;28;20631;-43
2022/01/01 12:15:48;;;;;;;1.80;1.27;;;25.20;48.70;;;;;;5009468;28;20795;-56
2022/01/01 12:18:20;;;;;;;2.22;1.48;;;25.20;48.70;;;;;;5009788;28;20200;-45
2022/01/01 12:20:57;;;;;;;2.45;1.75;;;25.20;48.70;;;;;;5010038;28;20311;-51
2022/01/01 12:23:33;;;;;;;3.05;1.40;;;25.10;48.70;;;;;;5009333;28;20313;-56
2022/01/01 12:26:10;;;;;;;2.47;1.70;;;25.10;48.70;;;;;;4993618;28;20272;-55
2022/01/01 12:28:42;;;;;;;2.38;1.70;;;25.10;48.80;;;;;;5009526;28;20283;-46
2022/01/01 12:31:15;;;;;;;2.45;1.65;;;25.10;48.80;;;;;;5008676;28;20303;-49
2022/01/01 12:33:46;;;;;;;1.70;1.58;;;25.10;48.90;;;;;;5002876;28;20284;-50
2022/01/01 12:36:18;;;;;;;2.17;1.63;;;25.10;48.90;;;;;;5009614;28;20280;-52
2022/01/01 12:38:53;;;;;;;1.45;1.30;;;25.00;48.90;;;;;;5010542;28;20284;-51
2022/01/01 12:41:24;;;;;;;1.63;1.48;;;25.00;48.90;;;;;;5008971;28;20259;-54
2022/01/01 12:43:56;;;;;;;1.98;1.50;;;25.00;48.90;;;;;;5009050;28;20633;-55
2022/01/01 12:46:32;;;;;;;1.60;1.50;;;24.90;48.90;;;;;;5009283;28;20243;-54
2022/01/01 12:49:04;;;;;;;2.17;1.40;;;24.90;48.90;;;;;;5010905;28;20295;-54
2022/01/01 12:51:37;;;;;;;2.03;1.40;;;24.90;48.90;;;;;;5010720;28;20237;-57
2022/01/01 12:54:09;;;;;;;1.92;1.35;;;24.80;48.80;;;;;;5010459;28;20259;-52
2022/01/01 12:56:40;;;;;;;2.67;1.50;;;24.90;48.90;;;;;;5009084;28;20251;-56
2022/01/01 12:59:12;;;;;;;1.60;1.50;;;24.80;48.90;;;;;;5008910;28;20280;-56
2022/01/01 13:01:46;;;;;;;2.53;1.50;;;24.80;48.90;;;;;;5006277;28;20297;-56
2022/01/01 13:04:17;;;;;;;2.45;1.40;;;24.80;48.90;;;;;;5012411;28;20287;-52
2022/01/01 13:06:53;;;;;;;2.58;1.48;;;24.70;48.90;;;;;;5014242;28;20642;-44
2022/01/01 13:09:27;;;;;;;1.73;1.30;;;24.70;48.90;;;;;;5012828;28;20302;-45
2022/01/01 13:11:59;;;;;;;1.50;1.35;;;24.70;49.00;;;;;;5011650;28;20200;-45
2022/01/01 13:14:30;;;;;;;2.67;1.60;;;24.70;49.00;;;;;;5012510;28;20240;-55